sensor_id;sensor_type;location;lat;lon;timestamp;P1;durP1;ratioP1;P2;durP2;ratioP2
38715;SDS011;24833;49.324;8.694;2023-04-24T00:01:15;1.58;;;0.70;;
38715;SDS011;24833;49.324;8.694;2023-04-24T00:03:43;0.75;;;0.40;;
38715;SDS011;24833;49.324;8.694;2023-04-24T00:06:10;0.70;;;0.52;;
38715;SDS011;24833;49.324;8.694;2023-04-24T00:08:37;1.58;;;0.60;;
38715;SDS011;24833;49.324;8.694;2023-04-24T00:11:04;1.88;;;0.70;;
38715;SDS011;24833;49.324;8.694;2023-04-24T00:13:31;0.75;;;0.68;;
38715;SDS011;24833;49.324;8.694;2023-04-24T00:16:02;1.02;;;0.52;;
38715;SDS011;24833;49.324;8.694;2023-04-24T00:18:29;0.90;;;0.45;;
38715;SDS011;24833;49.324;8.694;2023-04-24T00:20:56;0.93;;;0.63;;
38715;SDS011;24833;49.324;8.694;2023-04-24T00:23:23;0.40;;;0.30;;
38715;SDS011;24833;49.324;8.694;2023-04-24T00:25:50;0.68;;;0.47;;
38715;SDS011;24833;49.324;8.694;2023-04-24T00:31:13;1.05;;;0.60;;
38715;SDS011;24833;49.324;8.694;2023-04-24T00:33:40;1.58;;;0.70;;
38715;SDS011;24833;49.324;8.694;2023-04-24T00:36:08;0.40;;;0.40;;
38715;SDS011;24833;49.324;8.694;2023-04-24T00:38:35;0.88;;;0.50;;
38715;SDS011;24833;49.324;8.694;2023-04-24T00:41:02;1.23;;;0.50;;
38715;SDS011;24833;49.324;8.694;2023-04-24T00:43:29;0.73;;;0.43;;
38715;SDS011;24833;49.324;8.694;2023-04-24T00:45:56;3.28;;;0.40;;
38715;SDS011;24833;49.324;8.694;2023-04-24T00:48:25;0.43;;;0.40;;
38715;SDS011;24833;49.324;8.694;2023-04-24T00:50:53;0.73;;;0.50;;
38715;SDS011;24833;49.324;8.694;2023-04-24T00:53:21;1.13;;;0.57;;
38715;SDS011;24833;49.324;8.694;2023-04-24T00:55:48;1.10;;;0.52;;
38715;SDS011;24833;49.324;8.694;2023-04-24T00:58:18;0.95;;;0.40;;
38715;SDS011;24833;49.324;8.694;2023-04-24T01:00:45;3.25;;;0.40;;
38715;SDS011;24833;49.324;8.694;2023-04-24T01:03:15;0.90;;;0.57;;
38715;SDS011;24833;49.324;8.694;2023-04-24T01:05:43;0.20;;;0.20;;
38715;SDS011;24833;49.324;8.694;2023-04-24T01:08:10;0.30;;;0.30;;
38715;SDS011;24833;49.324;8.694;2023-04-24T01:10:37;1.90;;;0.32;;
38715;SDS011;24833;49.324;8.694;2023-04-24T01:13:07;0.65;;;0.43;;
38715;SDS011;24833;49.324;8.694;2023-04-24T01:15:34;1.27;;;0.50;;
38715;SDS011;24833;49.324;8.694;2023-04-24T01:18:02;2.58;;;0.50;;
38715;SDS011;24833;49.324;8.694;2023-04-24T01:20:29;0.63;;;0.30;;
38715;SDS011;24833;49.324;8.694;2023-04-24T01:22:58;1.25;;;0.55;;
38715;SDS011;24833;49.324;8.694;2023-04-24T01:25:25;0.82;;;0.55;;
38715;SDS011;24833;49.324;8.694;2023-04-24T01:27:56;0.85;;;0.60;;
38715;SDS011;24833;49.324;8.694;2023-04-24T01:30:23;1.35;;;0.60;;
38715;SDS011;24833;49.324;8.694;2023-04-24T01:32:51;1.35;;;0.57;;
38715;SDS011;24833;49.324;8.694;2023-04-24T01:35:19;0.93;;;0.43;;
38715;SDS011;24833;49.324;8.694;2023-04-24T01:37:46;1.58;;;0.60;;
38715;SDS011;24833;49.324;8.694;2023-04-24T01:40:13;1.73;;;0.55;;
38715;SDS011;24833;49.324;8.694;2023-04-24T01:42:41;0.85;;;0.35;;
38715;SDS011;24833;49.324;8.694;2023-04-24T01:45:10;0.65;;;0.45;;
38715;SDS011;24833;49.324;8.694;2023-04-24T01:47:39;0.55;;;0.47;;
38715;SDS011;24833;49.324;8.694;2023-04-24T01:50:06;1.10;;;0.43;;
38715;SDS011;24833;49.324;8.694;2023-04-24T01:52:34;0.82;;;0.50;;
38715;SDS011;24833;49.324;8.694;2023-04-24T01:55:02;2.05;;;0.60;;
38715;SDS011;24833;49.324;8.694;2023-04-24T01:57:31;0.45;;;0.40;;
38715;SDS011;24833;49.324;8.694;2023-04-24T01:59:59;1.77;;;0.30;;
38715;SDS011;24833;49.324;8.694;2023-04-24T02:02:27;1.13;;;0.57;;
38715;SDS011;24833;49.324;8.694;2023-04-24T02:04:56;0.55;;;0.52;;
38715;SDS011;24833;49.324;8.694;2023-04-24T02:07:23;0.20;;;0.20;;
38715;SDS011;24833;49.324;8.694;2023-04-24T02:09:50;0.52;;;0.43;;
38715;SDS011;24833;49.324;8.694;2023-04-24T02:12:17;1.13;;;0.50;;
38715;SDS011;24833;49.324;8.694;2023-04-24T02:14:45;0.47;;;0.47;;
38715;SDS011;24833;49.324;8.694;2023-04-24T02:17:12;1.73;;;0.32;;
38715;SDS011;24833;49.324;8.694;2023-04-24T02:19:40;0.55;;;0.43;;
38715;SDS011;24833;49.324;8.694;2023-04-24T02:22:09;0.30;;;0.30;;
38715;SDS011;24833;49.324;8.694;2023-04-24T02:24:37;0.40;;;0.40;;
38715;SDS011;24833;49.324;8.694;2023-04-24T02:27:05;1.08;;;0.40;;
38715;SDS011;24833;49.324;8.694;2023-04-24T02:29:32;0.80;;;0.50;;
38715;SDS011;24833;49.324;8.694;2023-04-24T02:31:59;1.35;;;0.45;;
38715;SDS011;24833;49.324;8.694;2023-04-24T02:34:26;1.48;;;0.60;;
38715;SDS011;24833;49.324;8.694;2023-04-24T02:36:53;2.15;;;0.95;;
38715;SDS011;24833;49.324;8.694;2023-04-24T02:39:21;1.10;;;0.70;;
38715;SDS011;24833;49.324;8.694;2023-04-24T02:41:48;1.23;;;0.65;;
38715;SDS011;24833;49.324;8.694;2023-04-24T02:44:15;0.70;;;0.52;;
38715;SDS011;24833;49.324;8.694;2023-04-24T02:49:13;0.70;;;0.60;;
38715;SDS011;24833;49.324;8.694;2023-04-24T02:51:40;0.65;;;0.40;;
38715;SDS011;24833;49.324;8.694;2023-04-24T02:54:08;0.73;;;0.40;;
38715;SDS011;24833;49.324;8.694;2023-04-24T02:56:36;1.70;;;0.68;;
38715;SDS011;24833;49.324;8.694;2023-04-24T02:59:05;0.95;;;0.60;;
38715;SDS011;24833;49.324;8.694;2023-04-24T03:01:32;2.05;;;0.68;;
38715;SDS011;24833;49.324;8.694;2023-04-24T03:03:59;2.47;;;0.60;;
38715;SDS011;24833;49.324;8.694;2023-04-24T03:06:28;1.20;;;0.40;;
38715;SDS011;24833;49.324;8.694;2023-04-24T03:08:55;0.70;;;0.57;;
38715;SDS011;24833;49.324;8.694;2023-04-24T03:11:22;0.63;;;0.43;;
38715;SDS011;24833;49.324;8.694;2023-04-24T03:13:49;0.30;;;0.30;;
38715;SDS011;24833;49.324;8.694;2023-04-24T03:16:15;0.68;;;0.35;;
38715;SDS011;24833;49.324;8.694;2023-04-24T03:18:42;0.85;;;0.45;;
38715;SDS011;24833;49.324;8.694;2023-04-24T03:21:09;2.38;;;0.55;;
38715;SDS011;24833;49.324;8.694;2023-04-24T03:23:37;0.63;;;0.52;;
38715;SDS011;24833;49.324;8.694;2023-04-24T03:26:04;0.68;;;0.60;;
38715;SDS011;24833;49.324;8.694;2023-04-24T03:28:33;0.65;;;0.65;;
38715;SDS011;24833;49.324;8.694;2023-04-24T03:31:03;0.68;;;0.68;;
38715;SDS011;24833;49.324;8.694;2023-04-24T03:33:34;0.95;;;0.68;;
38715;SDS011;24833;49.324;8.694;2023-04-24T03:36:02;0.73;;;0.73;;
38715;SDS011;24833;49.324;8.694;2023-04-24T03:38:36;0.85;;;0.70;;
38715;SDS011;24833;49.324;8.694;2023-04-24T03:41:20;1.33;;;0.80;;
38715;SDS011;24833;49.324;8.694;2023-04-24T03:43:53;0.77;;;0.77;;
38715;SDS011;24833;49.324;8.694;2023-04-24T03:46:20;1.67;;;0.88;;
38715;SDS011;24833;49.324;8.694;2023-04-24T03:48:52;0.68;;;0.68;;
38715;SDS011;24833;49.324;8.694;2023-04-24T03:51:24;0.82;;;0.80;;
38715;SDS011;24833;49.324;8.694;2023-04-24T03:53:54;0.57;;;0.50;;
38715;SDS011;24833;49.324;8.694;2023-04-24T03:56:24;2.63;;;0.87;;
38715;SDS011;24833;49.324;8.694;2023-04-24T03:58:51;0.82;;;0.82;;
38715;SDS011;24833;49.324;8.694;2023-04-24T04:01:19;1.27;;;0.80;;
38715;SDS011;24833;49.324;8.694;2023-04-24T04:03:54;0.63;;;0.60;;
38715;SDS011;24833;49.324;8.694;2023-04-24T04:06:23;1.13;;;0.77;;
38715;SDS011;24833;49.324;8.694;2023-04-24T04:12:35;1.25;;;1.00;;
38715;SDS011;24833;49.324;8.694;2023-04-24T04:15:02;0.88;;;0.77;;
38715;SDS011;24833;49.324;8.694;2023-04-24T04:17:32;1.80;;;0.90;;
38715;SDS011;24833;49.324;8.694;2023-04-24T04:20:00;1.55;;;1.00;;
38715;SDS011;24833;49.324;8.694;2023-04-24T04:22:30;1.95;;;0.82;;
38715;SDS011;24833;49.324;8.694;2023-04-24T04:24:59;2.40;;;1.55;;
38715;SDS011;24833;49.324;8.694;2023-04-24T04:27:28;1.33;;;1.00;;
38715;SDS011;24833;49.324;8.694;2023-04-24T04:30:03;0.93;;;0.80;;
38715;SDS011;24833;49.324;8.694;2023-04-24T04:32:41;0.70;;;0.70;;
38715;SDS011;24833;49.324;8.694;2023-04-24T04:35:08;1.17;;;1.08;;
38715;SDS011;24833;49.324;8.694;2023-04-24T04:37:36;0.90;;;0.85;;
38715;SDS011;24833;49.324;8.694;2023-04-24T04:40:30;1.67;;;1.20;;
38715;SDS011;24833;49.324;8.694;2023-04-24T04:43:01;1.55;;;1.35;;
38715;SDS011;24833;49.324;8.694;2023-04-24T04:45:37;1.00;;;1.00;;
38715;SDS011;24833;49.324;8.694;2023-04-24T04:48:18;1.27;;;1.00;;
38715;SDS011;24833;49.324;8.694;2023-04-24T04:50:45;1.38;;;1.00;;
38715;SDS011;24833;49.324;8.694;2023-04-24T04:53:13;1.30;;;1.05;;
38715;SDS011;24833;49.324;8.694;2023-04-24T04:55:41;3.35;;;1.10;;
38715;SDS011;24833;49.324;8.694;2023-04-24T04:58:13;1.60;;;1.10;;
38715;SDS011;24833;49.324;8.694;2023-04-24T05:00:42;1.20;;;1.10;;
38715;SDS011;24833;49.324;8.694;2023-04-24T05:03:17;1.70;;;1.60;;
38715;SDS011;24833;49.324;8.694;2023-04-24T05:05:52;1.30;;;1.20;;
38715;SDS011;24833;49.324;8.694;2023-04-24T05:08:19;3.58;;;1.33;;
38715;SDS011;24833;49.324;8.694;2023-04-24T05:10:53;1.70;;;1.30;;
38715;SDS011;24833;49.324;8.694;2023-04-24T05:13:22;1.95;;;1.38;;
38715;SDS011;24833;49.324;8.694;2023-04-24T05:16:07;1.02;;;1.00;;
38715;SDS011;24833;49.324;8.694;2023-04-24T05:18:34;1.58;;;1.48;;
38715;SDS011;24833;49.324;8.694;2023-04-24T05:21:02;2.35;;;1.70;;
38715;SDS011;24833;49.324;8.694;2023-04-24T05:23:29;2.00;;;1.10;;
38715;SDS011;24833;49.324;8.694;2023-04-24T05:25:56;1.30;;;1.20;;
38715;SDS011;24833;49.324;8.694;2023-04-24T05:28:23;1.30;;;1.20;;
38715;SDS011;24833;49.324;8.694;2023-04-24T05:31:03;2.63;;;1.48;;
38715;SDS011;24833;49.324;8.694;2023-04-24T05:33:30;1.88;;;1.45;;
38715;SDS011;24833;49.324;8.694;2023-04-24T05:35:57;1.67;;;1.58;;
38715;SDS011;24833;49.324;8.694;2023-04-24T05:38:24;1.85;;;1.50;;
38715;SDS011;24833;49.324;8.694;2023-04-24T05:40:51;1.73;;;1.63;;
38715;SDS011;24833;49.324;8.694;2023-04-24T05:43:18;1.63;;;1.52;;
38715;SDS011;24833;49.324;8.694;2023-04-24T05:45:46;3.35;;;1.77;;
38715;SDS011;24833;49.324;8.694;2023-04-24T05:48:12;1.85;;;1.55;;
38715;SDS011;24833;49.324;8.694;2023-04-24T05:50:39;2.53;;;2.00;;
38715;SDS011;24833;49.324;8.694;2023-04-24T05:53:07;4.80;;;2.03;;
38715;SDS011;24833;49.324;8.694;2023-04-24T05:55:35;3.08;;;1.90;;
38715;SDS011;24833;49.324;8.694;2023-04-24T05:58:03;1.60;;;1.50;;
38715;SDS011;24833;49.324;8.694;2023-04-24T06:00:31;1.73;;;1.63;;
38715;SDS011;24833;49.324;8.694;2023-04-24T06:03:04;2.30;;;1.75;;
38715;SDS011;24833;49.324;8.694;2023-04-24T06:05:32;2.55;;;1.63;;
38715;SDS011;24833;49.324;8.694;2023-04-24T06:08:01;2.13;;;1.92;;
38715;SDS011;24833;49.324;8.694;2023-04-24T06:10:33;2.13;;;1.90;;
38715;SDS011;24833;49.324;8.694;2023-04-24T06:13:01;1.92;;;1.83;;
38715;SDS011;24833;49.324;8.694;2023-04-24T06:15:30;2.10;;;1.90;;
38715;SDS011;24833;49.324;8.694;2023-04-24T06:18:03;2.60;;;1.98;;
38715;SDS011;24833;49.324;8.694;2023-04-24T06:20:30;3.60;;;2.28;;
38715;SDS011;24833;49.324;8.694;2023-04-24T06:22:57;3.83;;;2.38;;
38715;SDS011;24833;49.324;8.694;2023-04-24T06:25:25;3.33;;;2.20;;
38715;SDS011;24833;49.324;8.694;2023-04-24T06:27:55;2.40;;;2.20;;
38715;SDS011;24833;49.324;8.694;2023-04-24T06:30:23;3.45;;;2.25;;
38715;SDS011;24833;49.324;8.694;2023-04-24T06:32:50;2.30;;;2.10;;
38715;SDS011;24833;49.324;8.694;2023-04-24T06:35:17;3.15;;;2.00;;
38715;SDS011;24833;49.324;8.694;2023-04-24T06:37:44;2.35;;;1.88;;
38715;SDS011;24833;49.324;8.694;2023-04-24T06:40:12;2.08;;;1.80;;
38715;SDS011;24833;49.324;8.694;2023-04-24T06:42:39;2.25;;;1.88;;
38715;SDS011;24833;49.324;8.694;2023-04-24T06:45:07;2.63;;;1.85;;
38715;SDS011;24833;49.324;8.694;2023-04-24T06:47:35;2.25;;;1.65;;
38715;SDS011;24833;49.324;8.694;2023-04-24T06:50:02;2.65;;;2.00;;
38715;SDS011;24833;49.324;8.694;2023-04-24T06:52:29;2.35;;;1.85;;
38715;SDS011;24833;49.324;8.694;2023-04-24T06:55:02;2.05;;;1.83;;
38715;SDS011;24833;49.324;8.694;2023-04-24T06:57:31;2.20;;;1.88;;
38715;SDS011;24833;49.324;8.694;2023-04-24T06:59:58;1.90;;;1.40;;
38715;SDS011;24833;49.324;8.694;2023-04-24T07:02:25;1.67;;;1.58;;
38715;SDS011;24833;49.324;8.694;2023-04-24T07:04:52;1.60;;;1.50;;
38715;SDS011;24833;49.324;8.694;2023-04-24T07:07:19;1.52;;;1.42;;
38715;SDS011;24833;49.324;8.694;2023-04-24T07:09:50;2.22;;;1.40;;
38715;SDS011;24833;49.324;8.694;2023-04-24T07:12:17;1.45;;;1.27;;
38715;SDS011;24833;49.324;8.694;2023-04-24T07:14:46;1.98;;;1.48;;
38715;SDS011;24833;49.324;8.694;2023-04-24T07:17:14;2.75;;;1.30;;
38715;SDS011;24833;49.324;8.694;2023-04-24T07:19:41;1.50;;;1.40;;
38715;SDS011;24833;49.324;8.694;2023-04-24T07:22:09;1.30;;;1.20;;
38715;SDS011;24833;49.324;8.694;2023-04-24T07:24:37;1.70;;;1.30;;
38715;SDS011;24833;49.324;8.694;2023-04-24T07:27:04;1.92;;;1.50;;
38715;SDS011;24833;49.324;8.694;2023-04-24T07:29:31;1.45;;;1.35;;
38715;SDS011;24833;49.324;8.694;2023-04-24T07:31:58;1.27;;;1.17;;
38715;SDS011;24833;49.324;8.694;2023-04-24T07:34:29;2.92;;;1.45;;
38715;SDS011;24833;49.324;8.694;2023-04-24T07:36:56;2.65;;;1.40;;
38715;SDS011;24833;49.324;8.694;2023-04-24T07:39:23;1.60;;;1.20;;
38715;SDS011;24833;49.324;8.694;2023-04-24T07:41:50;1.17;;;1.08;;
38715;SDS011;24833;49.324;8.694;2023-04-24T07:44:17;1.10;;;1.00;;
38715;SDS011;24833;49.324;8.694;2023-04-24T07:46:44;1.92;;;1.13;;
38715;SDS011;24833;49.324;8.694;2023-04-24T07:49:11;1.42;;;1.30;;
38715;SDS011;24833;49.324;8.694;2023-04-24T07:51:41;1.35;;;1.17;;
38715;SDS011;24833;49.324;8.694;2023-04-24T07:54:08;1.25;;;1.00;;
38715;SDS011;24833;49.324;8.694;2023-04-24T07:56:35;1.60;;;1.00;;
38715;SDS011;24833;49.324;8.694;2023-04-24T07:59:05;1.33;;;1.15;;
38715;SDS011;24833;49.324;8.694;2023-04-24T08:01:32;1.10;;;1.08;;
38715;SDS011;24833;49.324;8.694;2023-04-24T08:03:59;1.40;;;1.10;;
38715;SDS011;24833;49.324;8.694;2023-04-24T08:06:27;1.50;;;1.05;;
38715;SDS011;24833;49.324;8.694;2023-04-24T08:08:56;1.38;;;1.23;;
38715;SDS011;24833;49.324;8.694;2023-04-24T08:11:24;1.40;;;1.10;;
38715;SDS011;24833;49.324;8.694;2023-04-24T08:13:52;1.30;;;1.00;;
38715;SDS011;24833;49.324;8.694;2023-04-24T08:16:21;0.70;;;0.70;;
38715;SDS011;24833;49.324;8.694;2023-04-24T08:18:50;1.27;;;1.00;;
38715;SDS011;24833;49.324;8.694;2023-04-24T08:21:17;1.02;;;1.00;;
38715;SDS011;24833;49.324;8.694;2023-04-24T08:23:45;0.88;;;0.88;;
38715;SDS011;24833;49.324;8.694;2023-04-24T08:26:13;1.48;;;1.10;;
38715;SDS011;24833;49.324;8.694;2023-04-24T08:28:40;1.58;;;1.13;;
38715;SDS011;24833;49.324;8.694;2023-04-24T08:31:07;1.33;;;1.00;;
38715;SDS011;24833;49.324;8.694;2023-04-24T08:33:34;1.20;;;1.00;;
38715;SDS011;24833;49.324;8.694;2023-04-24T08:36:02;1.77;;;1.40;;
38715;SDS011;24833;49.324;8.694;2023-04-24T08:38:31;1.83;;;1.25;;
38715;SDS011;24833;49.324;8.694;2023-04-24T08:40:59;1.90;;;1.10;;
38715;SDS011;24833;49.324;8.694;2023-04-24T08:43:27;1.48;;;0.95;;
38715;SDS011;24833;49.324;8.694;2023-04-24T08:45:55;1.85;;;0.93;;
38715;SDS011;24833;49.324;8.694;2023-04-24T08:48:23;1.00;;;1.00;;
38715;SDS011;24833;49.324;8.694;2023-04-24T08:50:58;1.20;;;1.10;;
38715;SDS011;24833;49.324;8.694;2023-04-24T08:53:26;0.60;;;0.60;;
38715;SDS011;24833;49.324;8.694;2023-04-24T08:55:54;1.20;;;0.80;;
38715;SDS011;24833;49.324;8.694;2023-04-24T08:58:24;1.38;;;1.08;;
38715;SDS011;24833;49.324;8.694;2023-04-24T09:00:56;0.75;;;0.75;;
38715;SDS011;24833;49.324;8.694;2023-04-24T09:03:24;1.25;;;0.90;;
38715;SDS011;24833;49.324;8.694;2023-04-24T09:05:54;0.77;;;0.77;;
38715;SDS011;24833;49.324;8.694;2023-04-24T09:08:23;1.42;;;0.90;;
38715;SDS011;24833;49.324;8.694;2023-04-24T09:10:54;1.00;;;0.80;;
38715;SDS011;24833;49.324;8.694;2023-04-24T09:13:21;1.17;;;0.95;;
38715;SDS011;24833;49.324;8.694;2023-04-24T09:15:48;0.85;;;0.85;;
38715;SDS011;24833;49.324;8.694;2023-04-24T09:18:18;1.08;;;0.95;;
38715;SDS011;24833;49.324;8.694;2023-04-24T09:23:30;0.88;;;0.88;;
38715;SDS011;24833;49.324;8.694;2023-04-24T09:25:59;0.95;;;0.80;;
38715;SDS011;24833;49.324;8.694;2023-04-24T09:28:46;2.25;;;1.00;;
38715;SDS011;24833;49.324;8.694;2023-04-24T09:31:14;0.93;;;0.93;;
38715;SDS011;24833;49.324;8.694;2023-04-24T09:33:55;1.90;;;1.10;;
38715;SDS011;24833;49.324;8.694;2023-04-24T09:39:11;1.65;;;0.98;;
38715;SDS011;24833;49.324;8.694;2023-04-24T09:44:29;0.80;;;0.80;;
38715;SDS011;24833;49.324;8.694;2023-04-24T09:46:57;1.55;;;0.85;;
38715;SDS011;24833;49.324;8.694;2023-04-24T09:49:26;2.63;;;1.33;;
38715;SDS011;24833;49.324;8.694;2023-04-24T09:52:03;1.30;;;1.20;;
38715;SDS011;24833;49.324;8.694;2023-04-24T09:54:32;1.67;;;1.13;;
38715;SDS011;24833;49.324;8.694;2023-04-24T09:56:59;0.95;;;0.80;;
38715;SDS011;24833;49.324;8.694;2023-04-24T09:59:27;1.42;;;1.10;;
38715;SDS011;24833;49.324;8.694;2023-04-24T10:01:54;2.08;;;1.23;;
38715;SDS011;24833;49.324;8.694;2023-04-24T10:04:22;1.20;;;1.10;;
38715;SDS011;24833;49.324;8.694;2023-04-24T10:06:51;1.13;;;1.02;;
38715;SDS011;24833;49.324;8.694;2023-04-24T10:09:21;3.30;;;1.15;;
38715;SDS011;24833;49.324;8.694;2023-04-24T10:11:53;1.85;;;1.48;;
38715;SDS011;24833;49.324;8.694;2023-04-24T10:14:22;2.25;;;1.50;;
38715;SDS011;24833;49.324;8.694;2023-04-24T10:16:52;2.43;;;1.90;;
38715;SDS011;24833;49.324;8.694;2023-04-24T10:19:21;1.77;;;1.40;;
38715;SDS011;24833;49.324;8.694;2023-04-24T10:21:52;1.45;;;1.35;;
38715;SDS011;24833;49.324;8.694;2023-04-24T10:24:20;1.92;;;1.58;;
38715;SDS011;24833;49.324;8.694;2023-04-24T10:26:48;2.03;;;1.50;;
38715;SDS011;24833;49.324;8.694;2023-04-24T10:29:16;2.65;;;1.42;;
38715;SDS011;24833;49.324;8.694;2023-04-24T10:31:45;1.60;;;1.50;;
38715;SDS011;24833;49.324;8.694;2023-04-24T10:34:14;3.50;;;1.60;;
38715;SDS011;24833;49.324;8.694;2023-04-24T10:36:53;1.52;;;1.17;;
38715;SDS011;24833;49.324;8.694;2023-04-24T10:39:23;2.10;;;1.20;;
38715;SDS011;24833;49.324;8.694;2023-04-24T10:41:54;1.52;;;1.42;;
38715;SDS011;24833;49.324;8.694;2023-04-24T10:44:24;1.50;;;1.40;;
38715;SDS011;24833;49.324;8.694;2023-04-24T10:46:55;1.67;;;1.30;;
38715;SDS011;24833;49.324;8.694;2023-04-24T10:49:29;1.63;;;1.42;;
38715;SDS011;24833;49.324;8.694;2023-04-24T10:52:02;1.73;;;1.48;;
38715;SDS011;24833;49.324;8.694;2023-04-24T10:57:40;1.90;;;1.27;;
38715;SDS011;24833;49.324;8.694;2023-04-24T11:00:10;1.63;;;1.52;;
38715;SDS011;24833;49.324;8.694;2023-04-24T11:02:47;1.52;;;1.42;;
38715;SDS011;24833;49.324;8.694;2023-04-24T11:05:17;1.63;;;1.52;;
38715;SDS011;24833;49.324;8.694;2023-04-24T11:10:46;1.60;;;1.50;;
38715;SDS011;24833;49.324;8.694;2023-04-24T11:13:21;3.55;;;2.13;;
38715;SDS011;24833;49.324;8.694;2023-04-24T11:18:50;2.95;;;1.67;;
38715;SDS011;24833;49.324;8.694;2023-04-24T11:29:44;2.08;;;1.40;;
38715;SDS011;24833;49.324;8.694;2023-04-24T11:35:00;2.88;;;1.95;;
38715;SDS011;24833;49.324;8.694;2023-04-24T11:37:43;3.83;;;1.80;;
38715;SDS011;24833;49.324;8.694;2023-04-24T11:40:23;3.97;;;2.05;;
38715;SDS011;24833;49.324;8.694;2023-04-24T11:42:52;1.80;;;1.70;;
38715;SDS011;24833;49.324;8.694;2023-04-24T11:45:24;2.63;;;1.67;;
38715;SDS011;24833;49.324;8.694;2023-04-24T11:47:56;2.60;;;1.85;;
38715;SDS011;24833;49.324;8.694;2023-04-24T11:50:25;1.92;;;1.67;;
38715;SDS011;24833;49.324;8.694;2023-04-24T11:52:54;5.13;;;2.40;;
38715;SDS011;24833;49.324;8.694;2023-04-24T11:55:23;2.08;;;1.60;;
38715;SDS011;24833;49.324;8.694;2023-04-24T11:57:56;1.50;;;1.40;;
38715;SDS011;24833;49.324;8.694;2023-04-24T12:03:07;2.95;;;1.77;;
38715;SDS011;24833;49.324;8.694;2023-04-24T12:05:37;2.72;;;2.10;;
38715;SDS011;24833;49.324;8.694;2023-04-24T12:08:05;2.85;;;1.83;;
38715;SDS011;24833;49.324;8.694;2023-04-24T12:10:33;2.47;;;1.88;;
38715;SDS011;24833;49.324;8.694;2023-04-24T12:13:01;1.80;;;1.70;;
38715;SDS011;24833;49.324;8.694;2023-04-24T12:15:29;2.53;;;1.92;;
38715;SDS011;24833;49.324;8.694;2023-04-24T12:17:56;2.50;;;1.80;;
38715;SDS011;24833;49.324;8.694;2023-04-24T12:20:31;3.20;;;2.15;;
38715;SDS011;24833;49.324;8.694;2023-04-24T12:22:59;3.92;;;2.15;;
38715;SDS011;24833;49.324;8.694;2023-04-24T12:30:33;1.77;;;1.65;;
38715;SDS011;24833;49.324;8.694;2023-04-24T12:33:06;3.05;;;1.70;;
38715;SDS011;24833;49.324;8.694;2023-04-24T12:35:33;2.80;;;1.75;;
38715;SDS011;24833;49.324;8.694;2023-04-24T12:38:05;1.48;;;1.38;;
38715;SDS011;24833;49.324;8.694;2023-04-24T12:40:34;1.80;;;1.55;;
38715;SDS011;24833;49.324;8.694;2023-04-24T12:43:01;2.00;;;1.63;;
38715;SDS011;24833;49.324;8.694;2023-04-24T12:45:38;1.63;;;1.52;;
38715;SDS011;24833;49.324;8.694;2023-04-24T12:48:05;3.83;;;2.08;;
38715;SDS011;24833;49.324;8.694;2023-04-24T12:50:32;2.25;;;1.67;;
38715;SDS011;24833;49.324;8.694;2023-04-24T12:52:59;1.80;;;1.50;;
38715;SDS011;24833;49.324;8.694;2023-04-24T12:55:26;1.95;;;1.75;;
38715;SDS011;24833;49.324;8.694;2023-04-24T12:57:53;2.35;;;1.85;;
38715;SDS011;24833;49.324;8.694;2023-04-24T13:00:21;3.13;;;2.30;;
38715;SDS011;24833;49.324;8.694;2023-04-24T13:02:48;2.90;;;2.10;;
38715;SDS011;24833;49.324;8.694;2023-04-24T13:05:16;2.75;;;1.83;;
38715;SDS011;24833;49.324;8.694;2023-04-24T13:07:43;2.20;;;1.63;;
38715;SDS011;24833;49.324;8.694;2023-04-24T13:10:10;3.80;;;1.83;;
38715;SDS011;24833;49.324;8.694;2023-04-24T13:12:37;2.67;;;1.90;;
38715;SDS011;24833;49.324;8.694;2023-04-24T13:15:05;1.70;;;1.50;;
38715;SDS011;24833;49.324;8.694;2023-04-24T13:17:33;2.35;;;1.50;;
38715;SDS011;24833;49.324;8.694;2023-04-24T13:20:00;1.55;;;1.40;;
38715;SDS011;24833;49.324;8.694;2023-04-24T13:22:27;1.95;;;1.42;;
38715;SDS011;24833;49.324;8.694;2023-04-24T13:24:54;4.35;;;1.23;;
38715;SDS011;24833;49.324;8.694;2023-04-24T13:27:22;1.98;;;1.23;;
38715;SDS011;24833;49.324;8.694;2023-04-24T13:29:49;1.58;;;1.48;;
38715;SDS011;24833;49.324;8.694;2023-04-24T13:32:16;1.50;;;1.33;;
38715;SDS011;24833;49.324;8.694;2023-04-24T13:34:43;2.22;;;1.52;;
38715;SDS011;24833;49.324;8.694;2023-04-24T13:37:10;1.48;;;1.38;;
38715;SDS011;24833;49.324;8.694;2023-04-24T13:39:38;2.17;;;1.60;;
38715;SDS011;24833;49.324;8.694;2023-04-24T13:42:05;2.47;;;1.95;;
38715;SDS011;24833;49.324;8.694;2023-04-24T13:44:32;2.78;;;1.65;;
38715;SDS011;24833;49.324;8.694;2023-04-24T13:46:59;3.50;;;1.63;;
38715;SDS011;24833;49.324;8.694;2023-04-24T13:49:26;2.25;;;1.63;;
38715;SDS011;24833;49.324;8.694;2023-04-24T13:51:54;1.85;;;1.60;;
38715;SDS011;24833;49.324;8.694;2023-04-24T13:54:22;1.77;;;1.52;;
38715;SDS011;24833;49.324;8.694;2023-04-24T13:56:51;3.33;;;1.52;;
38715;SDS011;24833;49.324;8.694;2023-04-24T13:59:19;2.00;;;1.75;;
38715;SDS011;24833;49.324;8.694;2023-04-24T14:01:47;3.10;;;1.23;;
38715;SDS011;24833;49.324;8.694;2023-04-24T14:04:15;2.25;;;1.60;;
38715;SDS011;24833;49.324;8.694;2023-04-24T14:06:43;2.35;;;1.30;;
38715;SDS011;24833;49.324;8.694;2023-04-24T14:09:10;1.27;;;1.20;;
38715;SDS011;24833;49.324;8.694;2023-04-24T14:11:37;1.55;;;1.27;;
38715;SDS011;24833;49.324;8.694;2023-04-24T14:14:04;2.33;;;1.20;;
38715;SDS011;24833;49.324;8.694;2023-04-24T14:16:31;3.17;;;1.48;;
38715;SDS011;24833;49.324;8.694;2023-04-24T14:18:58;2.40;;;1.58;;
38715;SDS011;24833;49.324;8.694;2023-04-24T14:21:26;1.95;;;1.40;;
38715;SDS011;24833;49.324;8.694;2023-04-24T14:23:53;1.98;;;1.40;;
38715;SDS011;24833;49.324;8.694;2023-04-24T14:26:20;1.67;;;1.40;;
38715;SDS011;24833;49.324;8.694;2023-04-24T14:28:47;1.92;;;1.48;;
38715;SDS011;24833;49.324;8.694;2023-04-24T14:31:13;2.05;;;1.30;;
38715;SDS011;24833;49.324;8.694;2023-04-24T14:33:40;1.40;;;1.30;;
38715;SDS011;24833;49.324;8.694;2023-04-24T14:36:08;1.98;;;1.60;;
38715;SDS011;24833;49.324;8.694;2023-04-24T14:38:35;2.47;;;1.23;;
38715;SDS011;24833;49.324;8.694;2023-04-24T14:41:02;1.58;;;1.33;;
38715;SDS011;24833;49.324;8.694;2023-04-24T14:43:39;2.55;;;1.65;;
38715;SDS011;24833;49.324;8.694;2023-04-24T14:46:06;1.77;;;1.30;;
38715;SDS011;24833;49.324;8.694;2023-04-24T14:48:33;2.45;;;1.65;;
38715;SDS011;24833;49.324;8.694;2023-04-24T14:51:00;1.85;;;1.23;;
38715;SDS011;24833;49.324;8.694;2023-04-24T14:53:27;1.40;;;1.20;;
38715;SDS011;24833;49.324;8.694;2023-04-24T14:55:54;1.75;;;1.30;;
38715;SDS011;24833;49.324;8.694;2023-04-24T14:58:21;2.17;;;1.00;;
38715;SDS011;24833;49.324;8.694;2023-04-24T15:00:48;2.65;;;1.25;;
38715;SDS011;24833;49.324;8.694;2023-04-24T15:03:20;1.77;;;1.38;;
38715;SDS011;24833;49.324;8.694;2023-04-24T15:05:48;2.95;;;1.48;;
38715;SDS011;24833;49.324;8.694;2023-04-24T15:08:16;1.45;;;1.33;;
38715;SDS011;24833;49.324;8.694;2023-04-24T15:10:43;1.88;;;1.70;;
38715;SDS011;24833;49.324;8.694;2023-04-24T15:13:11;2.58;;;1.60;;
38715;SDS011;24833;49.324;8.694;2023-04-24T15:15:38;1.80;;;1.35;;
38715;SDS011;24833;49.324;8.694;2023-04-24T15:18:05;1.60;;;1.20;;
38715;SDS011;24833;49.324;8.694;2023-04-24T15:20:34;2.40;;;1.52;;
38715;SDS011;24833;49.324;8.694;2023-04-24T15:23:04;1.63;;;1.20;;
38715;SDS011;24833;49.324;8.694;2023-04-24T15:25:33;1.90;;;1.48;;
38715;SDS011;24833;49.324;8.694;2023-04-24T15:28:00;1.67;;;1.30;;
38715;SDS011;24833;49.324;8.694;2023-04-24T15:30:27;2.05;;;1.50;;
38715;SDS011;24833;49.324;8.694;2023-04-24T15:32:55;2.13;;;1.67;;
38715;SDS011;24833;49.324;8.694;2023-04-24T15:35:22;2.00;;;1.35;;
38715;SDS011;24833;49.324;8.694;2023-04-24T15:37:50;2.63;;;1.83;;
38715;SDS011;24833;49.324;8.694;2023-04-24T15:40:17;2.10;;;1.70;;
38715;SDS011;24833;49.324;8.694;2023-04-24T15:42:44;2.97;;;1.55;;